createdAt,value
2018-08-07T00:01:41.174Z,95.70
2018-08-07T00:04:09.947Z,96.20
2018-08-07T00:06:38.477Z,96.30
2018-08-07T00:09:09.871Z,96.20
2018-08-07T00:11:38.526Z,96.00
2018-08-07T00:14:07.659Z,96.40
2018-08-07T00:16:36.316Z,96.30
2018-08-07T00:19:04.921Z,95.70
2018-08-07T00:21:33.592Z,97.10
2018-08-07T00:24:02.238Z,96.30
2018-08-07T00:26:30.879Z,96.50
2018-08-07T00:28:59.540Z,96.70
2018-08-07T00:31:28.097Z,97.20
2018-08-07T00:33:56.708Z,97.20
2018-08-07T00:36:25.324Z,97.10
2018-08-07T00:38:54.111Z,97.40
2018-08-07T00:41:23.026Z,98.00
2018-08-07T00:43:51.539Z,97.50
2018-08-07T00:46:20.065Z,97.60
2018-08-07T00:48:48.714Z,97.90
2018-08-07T00:51:17.266Z,97.90
2018-08-07T00:53:45.788Z,98.00
2018-08-07T00:56:14.291Z,98.50
2018-08-07T00:58:42.909Z,98.00
2018-08-07T01:01:11.588Z,98.00
2018-08-07T01:03:40.320Z,98.00
2018-08-07T01:06:08.922Z,97.80
2018-08-07T01:08:37.586Z,98.30
2018-08-07T01:11:06.460Z,98.60
2018-08-07T01:13:34.991Z,98.50
2018-08-07T01:16:03.738Z,98.30
2018-08-07T01:18:32.622Z,98.80
2018-08-07T01:21:01.472Z,98.80
2018-08-07T01:23:30.154Z,99.00
2018-08-07T01:25:58.879Z,98.80
2018-08-07T01:28:27.372Z,98.90
2018-08-07T01:30:55.983Z,99.40
2018-08-07T01:33:24.539Z,98.90
2018-08-07T01:35:53.070Z,99.10
2018-08-07T01:38:21.668Z,99.40
2018-08-07T01:40:50.183Z,99.20
2018-08-07T01:43:18.846Z,98.80
2018-08-07T01:45:47.503Z,99.00
2018-08-07T01:48:16.283Z,98.70
2018-08-07T01:50:44.883Z,99.10
2018-08-07T01:53:13.364Z,99.20
2018-08-07T01:55:41.874Z,99.00
2018-08-07T01:58:10.458Z,99.60
2018-08-07T02:00:39.127Z,99.40
2018-08-07T02:03:07.618Z,99.20
2018-08-07T02:05:36.165Z,99.20
2018-08-07T02:08:05.376Z,99.50
2018-08-07T02:10:33.960Z,99.60
2018-08-07T02:13:02.611Z,99.30
2018-08-07T02:15:31.171Z,99.30
2018-08-07T02:18:00.067Z,99.60
2018-08-07T02:20:28.523Z,99.50
2018-08-07T02:22:57.039Z,99.80
2018-08-07T02:25:25.615Z,99.80
2018-08-07T02:27:54.295Z,99.70
2018-08-07T02:30:22.884Z,99.90
2018-08-07T02:32:51.399Z,99.70
2018-08-07T02:35:20.318Z,99.50
2018-08-07T02:37:48.906Z,99.50
2018-08-07T02:40:17.701Z,99.70
2018-08-07T02:45:17.453Z,99.90
2018-08-07T02:47:46.598Z,99.90
2018-08-07T02:50:17.022Z,99.90
2018-08-07T02:52:45.813Z,99.90
2018-08-07T02:55:14.507Z,99.90
2018-08-07T03:00:20.817Z,99.80
2018-08-07T03:02:49.559Z,99.70
2018-08-07T03:05:19.331Z,99.90
2018-08-07T03:07:48.058Z,99.90
2018-08-07T03:12:44.965Z,99.90
2018-08-07T03:15:16.910Z,99.90
2018-08-07T03:17:46.612Z,99.90
2018-08-07T03:20:15.710Z,99.90
2018-08-07T03:22:44.325Z,99.90
2018-08-07T03:25:13.676Z,99.90
2018-08-07T03:27:43.114Z,99.90
2018-08-07T03:30:14.867Z,99.90
2018-08-07T03:32:43.650Z,99.90
2018-08-07T03:35:12.185Z,99.90
2018-08-07T03:37:41.107Z,99.90
2018-08-07T03:40:13.979Z,99.90
2018-08-07T03:42:42.713Z,99.90
2018-08-07T03:45:13.227Z,99.90
2018-08-07T03:47:42.370Z,99.90
2018-08-07T03:50:11.546Z,99.90
2018-08-07T03:52:40.081Z,99.90
2018-08-07T03:55:12.220Z,99.90
2018-08-07T03:57:41.839Z,99.90
2018-08-07T04:00:15.271Z,99.90
2018-08-07T04:02:43.800Z,99.90
2018-08-07T04:05:12.689Z,99.90
2018-08-07T04:07:41.187Z,99.90
2018-08-07T04:10:11.753Z,99.90
2018-08-07T04:12:40.507Z,99.90
2018-08-07T04:15:11.467Z,99.90
2018-08-07T04:17:40.322Z,99.90
2018-08-07T04:20:11.720Z,99.90
2018-08-07T04:22:40.254Z,99.90
2018-08-07T04:25:08.808Z,99.90
2018-08-07T04:27:37.999Z,99.90
2018-08-07T04:30:10.658Z,99.90
2018-08-07T04:32:39.427Z,99.90
2018-08-07T04:35:08.302Z,99.90
2018-08-07T04:37:37.097Z,99.90
2018-08-07T04:42:35.478Z,99.90
2018-08-07T04:45:05.023Z,99.90
2018-08-07T04:47:33.570Z,99.90
2018-08-07T04:50:02.369Z,99.90
2018-08-07T04:52:30.939Z,99.90
2018-08-07T04:54:59.498Z,99.90
2018-08-07T04:57:28.024Z,99.90
2018-08-07T04:59:56.559Z,99.90
2018-08-07T05:02:25.158Z,99.90
2018-08-07T05:04:53.627Z,99.90
2018-08-07T05:07:22.152Z,99.90
2018-08-07T05:09:50.723Z,99.90
2018-08-07T05:12:19.526Z,99.90
2018-08-07T05:14:48.043Z,99.90
2018-08-07T05:17:16.861Z,99.90
2018-08-07T05:19:45.510Z,99.90
2018-08-07T05:22:14.018Z,99.90
2018-08-07T05:24:42.799Z,99.90
2018-08-07T05:27:11.354Z,99.90
2018-08-07T05:29:39.950Z,99.90
2018-08-07T05:32:08.915Z,99.90
2018-08-07T05:34:37.514Z,99.90
2018-08-07T05:37:06.085Z,99.90
2018-08-07T05:39:34.663Z,99.90
2018-08-07T05:42:03.223Z,99.90
2018-08-07T05:44:31.806Z,99.90
2018-08-07T05:47:00.414Z,99.90
2018-08-07T05:49:29.091Z,99.90
2018-08-07T05:51:57.772Z,99.90
2018-08-07T05:54:26.295Z,99.90
2018-08-07T05:56:54.993Z,99.90
2018-08-07T05:59:23.705Z,99.90
2018-08-07T06:01:52.366Z,99.90
2018-08-07T06:04:20.965Z,99.90
2018-08-07T06:06:49.974Z,99.90
2018-08-07T06:09:18.490Z,99.90
2018-08-07T06:11:47.126Z,99.90
2018-08-07T06:14:15.615Z,99.90
2018-08-07T06:16:44.196Z,99.90
2018-08-07T06:19:12.937Z,99.90
2018-08-07T06:24:09.672Z,99.90
2018-08-07T06:26:38.224Z,99.90
2018-08-07T06:29:06.832Z,99.90
2018-08-07T06:31:35.395Z,99.90
2018-08-07T06:34:04.012Z,99.90
2018-08-07T06:36:32.699Z,99.90
2018-08-07T06:39:01.219Z,99.90
2018-08-07T06:43:57.968Z,99.90
2018-08-07T06:46:26.555Z,99.90
2018-08-07T06:48:55.368Z,99.90
2018-08-07T06:51:24.016Z,99.90
2018-08-07T06:53:52.552Z,99.90
2018-08-07T06:56:21.183Z,99.90
2018-08-07T06:58:49.674Z,99.90
2018-08-07T07:01:18.309Z,99.90
2018-08-07T07:03:46.975Z,99.90
2018-08-07T07:08:43.695Z,99.90
2018-08-07T07:11:12.204Z,99.90
2018-08-07T07:13:40.899Z,99.90
2018-08-07T07:16:09.516Z,99.90
2018-08-07T07:18:38.011Z,99.90
2018-08-07T07:21:07.239Z,99.90
2018-08-07T07:23:35.845Z,99.90
2018-08-07T07:26:04.749Z,99.90
2018-08-07T07:28:33.284Z,99.90
2018-08-07T07:31:01.910Z,99.90
2018-08-07T07:33:30.571Z,99.90
2018-08-07T07:38:27.515Z,99.90
2018-08-07T07:40:56.071Z,99.90
2018-08-07T07:43:24.660Z,99.90
2018-08-07T07:45:53.208Z,99.90
2018-08-07T07:48:22.099Z,99.90
2018-08-07T07:50:50.598Z,99.90
2018-08-07T07:53:19.440Z,99.90
2018-08-07T07:55:48.166Z,99.90
2018-08-07T07:58:16.736Z,99.90
2018-08-07T08:00:45.259Z,99.90
2018-08-07T08:03:13.803Z,99.90
2018-08-07T08:05:42.402Z,99.90
2018-08-07T08:08:11.016Z,99.90
2018-08-07T08:10:39.655Z,99.60
2018-08-07T08:13:08.364Z,98.70
2018-08-07T08:15:37.050Z,98.70
2018-08-07T08:18:06.193Z,98.20
2018-08-07T08:20:34.863Z,98.40
2018-08-07T08:23:03.611Z,98.30
2018-08-07T08:25:32.235Z,98.10
2018-08-07T08:30:29.344Z,98.30
2018-08-07T08:32:57.988Z,98.20
2018-08-07T08:37:54.816Z,98.20
2018-08-07T08:40:24.663Z,98.50
2018-08-07T08:42:53.225Z,98.20
2018-08-07T08:45:23.763Z,97.90
2018-08-07T08:47:56.762Z,97.60
2018-08-07T08:50:25.393Z,96.50
2018-08-07T08:52:54.343Z,96.00
2018-08-07T08:55:22.905Z,96.90
2018-08-07T08:57:51.593Z,96.60
2018-08-07T09:00:29.685Z,96.80
2018-08-07T09:02:59.535Z,96.50
2018-08-07T09:05:28.438Z,96.90
2018-08-07T09:07:57.048Z,96.20
2018-08-07T09:10:27.338Z,96.50
2018-08-07T09:12:56.641Z,96.20
2018-08-07T09:15:25.373Z,96.80
2018-08-07T09:17:54.061Z,96.60
2018-08-07T09:22:52.717Z,96.60
2018-08-07T09:25:22.411Z,95.70
2018-08-07T09:27:51.159Z,94.50
2018-08-07T09:30:22.740Z,94.70
2018-08-07T09:32:52.194Z,94.70
2018-08-07T09:35:21.761Z,94.60
2018-08-07T09:37:50.544Z,94.20
2018-08-07T09:40:20.605Z,93.80
2018-08-07T09:42:50.677Z,93.30
2018-08-07T09:45:25.149Z,93.30
2018-08-07T09:47:54.120Z,92.80
2018-08-07T09:50:22.938Z,93.10
2018-08-07T09:52:51.717Z,93.00
2018-08-07T09:55:20.559Z,92.80
2018-08-07T09:57:49.242Z,92.20
2018-08-07T10:00:24.277Z,91.80
2018-08-07T10:02:56.038Z,91.50
2018-08-07T10:05:26.544Z,90.50
2018-08-07T10:07:55.069Z,88.40
2018-08-07T10:10:24.110Z,90.20
2018-08-07T10:15:21.038Z,88.00
2018-08-07T10:17:49.685Z,88.60
2018-08-07T10:20:18.381Z,86.80
2018-08-07T10:22:47.182Z,90.40
2018-08-07T10:25:17.216Z,90.20
2018-08-07T10:27:46.983Z,90.30
2018-08-07T10:30:24.196Z,90.60
2018-08-07T10:32:53.737Z,88.00
2018-08-07T10:35:22.615Z,88.80
2018-08-07T10:37:51.336Z,89.40
2018-08-07T10:40:22.526Z,90.70
2018-08-07T10:42:51.226Z,91.70
2018-08-07T10:45:21.362Z,91.20
2018-08-07T10:47:50.067Z,90.40
2018-08-07T10:50:24.014Z,90.90
2018-08-07T10:52:52.896Z,91.70
2018-08-07T10:55:22.588Z,89.50
2018-08-07T10:57:52.439Z,88.70
2018-08-07T11:00:22.418Z,90.50
2018-08-07T11:02:51.988Z,90.70
2018-08-07T11:05:21.412Z,90.50
2018-08-07T11:07:50.300Z,90.90
2018-08-07T11:10:19.484Z,90.30
2018-08-07T11:12:48.379Z,90.80
2018-08-07T11:15:20.407Z,90.60
2018-08-07T11:17:50.080Z,90.10
2018-08-07T11:20:18.972Z,90.30
2018-08-07T11:22:49.047Z,90.90
2018-08-07T11:25:19.067Z,91.60
2018-08-07T11:30:19.379Z,91.70
2018-08-07T11:32:48.627Z,90.00
2018-08-07T11:35:17.772Z,89.40
2018-08-07T11:37:47.762Z,90.40
2018-08-07T11:40:19.683Z,82.90
2018-08-07T11:42:49.295Z,80.70
2018-08-07T11:45:20.526Z,84.80
2018-08-07T11:47:49.236Z,80.20
2018-08-07T11:52:54.733Z,78.20
2018-08-07T11:55:24.284Z,80.80
2018-08-07T12:00:27.020Z,81.60
2018-08-07T12:02:55.866Z,79.00
2018-08-07T12:05:24.735Z,77.00
2018-08-07T12:07:53.549Z,76.40
2018-08-07T12:10:22.239Z,75.00
2018-08-07T12:12:51.479Z,75.60
2018-08-07T12:15:22.388Z,73.80
2018-08-07T12:17:51.154Z,70.80
2018-08-07T12:20:19.751Z,71.40
2018-08-07T12:22:48.523Z,72.60
2018-08-07T12:25:18.014Z,71.00
2018-08-07T12:27:46.646Z,73.70
2018-08-07T12:30:24.936Z,73.20
2018-08-07T12:32:53.789Z,74.30
2018-08-07T12:35:22.401Z,74.60
2018-08-07T12:37:51.466Z,72.50
2018-08-07T12:40:24.234Z,75.20
2018-08-07T12:42:56.336Z,74.90
2018-08-07T12:45:25.764Z,74.20
2018-08-07T12:47:54.415Z,71.70
2018-08-07T12:52:51.313Z,73.10
2018-08-07T12:55:21.508Z,74.00
2018-08-07T12:57:50.794Z,73.40
2018-08-07T13:00:22.010Z,73.50
2018-08-07T13:02:50.621Z,75.10
2018-08-07T13:05:19.439Z,76.30
2018-08-07T13:07:48.176Z,75.30
2018-08-07T13:10:19.294Z,73.80
2018-08-07T13:12:48.650Z,71.40
2018-08-07T13:15:18.730Z,71.40
2018-08-07T13:17:47.936Z,71.80
2018-08-07T13:20:16.718Z,70.70
2018-08-07T13:22:46.257Z,72.10
2018-08-07T13:25:17.271Z,71.70
2018-08-07T13:27:45.974Z,73.40
2018-08-07T13:30:16.727Z,74.50
2018-08-07T13:32:45.418Z,74.80
2018-08-07T13:35:14.474Z,71.60
2018-08-07T13:37:44.930Z,74.20
2018-08-07T13:40:15.734Z,73.40
2018-08-07T13:42:44.567Z,77.50
2018-08-07T13:45:16.035Z,72.10
2018-08-07T13:47:44.654Z,72.00
2018-08-07T13:50:15.203Z,72.90
2018-08-07T13:52:44.709Z,70.40
2018-08-07T13:55:14.509Z,68.30
2018-08-07T13:57:43.196Z,68.70
2018-08-07T14:00:15.564Z,70.10
2018-08-07T14:02:44.954Z,67.50
2018-08-07T14:05:14.279Z,66.10
2018-08-07T14:07:43.260Z,66.40
2018-08-07T14:10:13.000Z,65.00
2018-08-07T14:12:41.985Z,67.40
2018-08-07T14:15:12.304Z,66.00
2018-08-07T14:17:41.286Z,64.80
2018-08-07T14:22:40.384Z,66.90
2018-08-07T14:25:12.164Z,66.20
2018-08-07T14:27:40.971Z,67.00
2018-08-07T14:30:13.693Z,66.40
2018-08-07T14:32:42.327Z,64.90
2018-08-07T14:35:11.481Z,66.40
2018-08-07T14:37:42.404Z,64.10
2018-08-07T14:40:12.655Z,66.10
2018-08-07T14:45:12.893Z,66.40
2018-08-07T14:50:12.438Z,66.10
2018-08-07T14:52:41.594Z,65.30
2018-08-07T14:55:11.110Z,67.60
2018-08-07T14:57:40.538Z,68.60
2018-08-07T15:03:11.074Z,68.00
2018-08-07T15:05:39.727Z,66.90
2018-08-07T15:08:08.346Z,66.30
2018-08-07T15:10:36.973Z,64.80
2018-08-07T15:13:05.852Z,65.80
2018-08-07T15:15:34.500Z,66.10
2018-08-07T15:18:03.202Z,65.30
2018-08-07T15:20:32.412Z,67.00
2018-08-07T15:23:01.252Z,67.30
2018-08-07T15:25:29.876Z,67.60
2018-08-07T15:27:58.562Z,67.20
2018-08-07T15:30:28.272Z,64.50
2018-08-07T15:32:57.216Z,65.00
2018-08-07T15:35:27.474Z,65.10
2018-08-07T15:37:56.318Z,63.70
2018-08-07T15:40:25.243Z,60.90
2018-08-07T15:42:53.913Z,62.30
2018-08-07T15:45:24.250Z,58.50
2018-08-07T15:47:53.140Z,59.00
2018-08-07T15:50:22.404Z,60.20
2018-08-07T15:52:52.385Z,60.60
2018-08-07T15:55:22.539Z,64.10
2018-08-07T15:57:51.217Z,62.70
2018-08-07T16:00:25.576Z,64.00
2018-08-07T16:02:54.407Z,62.40
2018-08-07T16:05:22.929Z,60.80
2018-08-07T16:07:52.687Z,62.30
2018-08-07T16:10:21.943Z,63.30
2018-08-07T16:12:51.609Z,61.90
2018-08-07T16:15:20.706Z,59.00
2018-08-07T16:17:50.287Z,57.90
2018-08-07T16:20:19.153Z,59.10
2018-08-07T16:22:47.780Z,58.30
2018-08-07T16:25:17.764Z,60.40
2018-08-07T16:27:47.450Z,59.80
2018-08-07T16:30:18.740Z,58.10
2018-08-07T16:32:47.226Z,63.10
2018-08-07T16:35:16.516Z,60.40
2018-08-07T16:37:45.748Z,60.50
2018-08-07T16:40:17.156Z,62.90
2018-08-07T16:42:46.281Z,63.30
2018-08-07T16:45:17.112Z,62.00
2018-08-07T16:47:46.065Z,63.00
2018-08-07T16:50:26.697Z,65.50
2018-08-07T16:52:56.280Z,66.10
2018-08-07T16:55:26.569Z,63.80
2018-08-07T16:57:55.483Z,65.20
2018-08-07T17:00:24.271Z,66.70
2018-08-07T17:02:53.220Z,62.50
2018-08-07T17:05:21.782Z,64.10
2018-08-07T17:07:50.940Z,64.80
2018-08-07T17:10:22.236Z,64.40
2018-08-07T17:12:51.027Z,65.90
2018-08-07T17:15:19.704Z,65.60
2018-08-07T17:17:48.765Z,62.50
2018-08-07T17:20:18.686Z,63.80
2018-08-07T17:22:47.823Z,66.40
2018-08-07T17:25:18.768Z,67.20
2018-08-07T17:27:48.115Z,65.30
2018-08-07T17:30:19.465Z,66.10
2018-08-07T17:32:48.523Z,66.20
2018-08-07T17:35:21.408Z,67.70
2018-08-07T17:37:51.507Z,66.00
2018-08-07T17:40:21.803Z,68.10
2018-08-07T17:42:50.761Z,67.20
2018-08-07T17:45:19.700Z,68.40
2018-08-07T17:47:48.523Z,66.60
2018-08-07T17:50:21.460Z,67.20
2018-08-07T17:52:50.689Z,69.20
2018-08-07T17:55:19.500Z,70.00
2018-08-07T17:57:49.158Z,66.70
2018-08-07T18:00:20.725Z,68.20
2018-08-07T18:02:49.527Z,70.50
2018-08-07T18:05:18.303Z,70.80
2018-08-07T18:07:48.811Z,71.40
2018-08-07T18:10:18.837Z,71.80
2018-08-07T18:12:47.580Z,71.30
2018-08-07T18:15:17.431Z,71.30
2018-08-07T18:17:46.760Z,73.90
2018-08-07T18:20:18.631Z,73.40
2018-08-07T18:22:47.561Z,71.50
2018-08-07T18:25:16.369Z,72.80
2018-08-07T18:27:44.900Z,68.50
2018-08-07T18:30:15.082Z,70.80
2018-08-07T18:32:44.451Z,72.20
2018-08-07T18:35:15.895Z,70.80
2018-08-07T18:37:44.563Z,71.80
2018-08-07T18:40:13.405Z,67.10
2018-08-07T18:42:42.398Z,66.10
2018-08-07T18:45:12.795Z,66.20
2018-08-07T18:47:42.432Z,64.60
2018-08-07T18:50:13.028Z,65.10
2018-08-07T18:52:42.281Z,64.70
2018-08-07T18:55:12.827Z,71.20
2018-08-07T18:57:42.825Z,78.30
2018-08-07T19:00:14.169Z,82.00
2018-08-07T19:02:42.913Z,82.90
2018-08-07T19:05:14.112Z,83.10
2018-08-07T19:07:42.827Z,83.00
2018-08-07T19:10:12.368Z,82.80
2018-08-07T19:12:41.564Z,81.60
2018-08-07T19:15:11.458Z,82.00
2018-08-07T19:17:40.098Z,83.30
2018-08-07T19:20:10.172Z,84.60
2018-08-07T19:22:38.852Z,84.50
2018-08-07T19:25:08.589Z,85.30
2018-08-07T19:27:37.449Z,85.40
2018-08-07T19:30:08.718Z,86.60
2018-08-07T19:32:37.356Z,86.80
2018-08-07T19:35:06.866Z,86.80
2018-08-07T19:37:35.945Z,87.40
2018-08-07T19:40:06.373Z,87.30
2018-08-07T19:42:35.455Z,87.40
2018-08-07T19:45:05.035Z,87.40
2018-08-07T19:47:33.697Z,87.60
2018-08-07T19:50:02.360Z,87.70
2018-08-07T19:52:31.128Z,87.70
2018-08-07T19:54:59.810Z,88.00
2018-08-07T19:57:28.511Z,88.20
2018-08-07T19:59:57.250Z,88.40
2018-08-07T20:02:26.111Z,88.60
2018-08-07T20:04:54.769Z,88.80
2018-08-07T20:07:23.511Z,89.00
2018-08-07T20:09:52.245Z,89.40
2018-08-07T20:12:20.851Z,90.10
2018-08-07T20:14:49.633Z,89.70
2018-08-07T20:17:19.565Z,90.00
2018-08-07T20:19:48.275Z,90.10
2018-08-07T20:22:17.731Z,90.20
2018-08-07T20:24:46.413Z,90.30
2018-08-07T20:27:15.121Z,90.40
2018-08-07T20:29:44.133Z,90.50
2018-08-07T20:32:12.732Z,90.60
2018-08-07T20:34:41.514Z,90.80
2018-08-07T20:37:10.216Z,90.80
2018-08-07T20:39:39.013Z,91.00
2018-08-07T20:42:07.862Z,91.00
2018-08-07T20:44:36.560Z,91.10
2018-08-07T20:47:05.185Z,91.10
2018-08-07T20:49:33.755Z,91.20
2018-08-07T20:52:02.297Z,91.20
2018-08-07T20:54:31.308Z,91.40
2018-08-07T20:56:59.998Z,91.40
2018-08-07T20:59:28.848Z,91.30
2018-08-07T21:01:57.651Z,91.70
2018-08-07T21:04:26.243Z,91.40
2018-08-07T21:06:55.031Z,91.50
2018-08-07T21:09:23.739Z,91.50
2018-08-07T21:11:52.351Z,91.60
2018-08-07T21:14:21.174Z,91.70
2018-08-07T21:16:49.867Z,91.80
2018-08-07T21:19:18.522Z,91.70
2018-08-07T21:21:47.219Z,91.90
2018-08-07T21:24:15.862Z,91.70
2018-08-07T21:26:44.448Z,91.70
2018-08-07T21:29:13.056Z,91.70
2018-08-07T21:31:41.634Z,91.70
2018-08-07T21:34:10.406Z,91.70
2018-08-07T21:36:38.942Z,91.70
2018-08-07T21:39:08.935Z,91.70
2018-08-07T21:41:37.821Z,91.60
2018-08-07T21:44:06.838Z,91.60
2018-08-07T21:46:35.839Z,91.60
2018-08-07T21:49:04.584Z,91.40
2018-08-07T21:51:33.282Z,91.30
2018-08-07T21:54:02.086Z,91.30
2018-08-07T21:56:30.720Z,91.30
2018-08-07T21:58:59.404Z,91.50
2018-08-07T22:01:27.939Z,91.40
2018-08-07T22:03:56.500Z,91.50
2018-08-07T22:06:25.225Z,91.40
2018-08-07T22:08:53.901Z,91.40
2018-08-07T22:11:22.626Z,91.40
2018-08-07T22:13:51.180Z,91.40
2018-08-07T22:16:19.974Z,91.40
2018-08-07T22:18:48.552Z,91.40
2018-08-07T22:21:17.145Z,91.40
2018-08-07T22:23:45.690Z,91.50
2018-08-07T22:26:14.199Z,91.40
2018-08-07T22:28:42.714Z,91.70
2018-08-07T22:31:11.450Z,91.60
2018-08-07T22:33:40.194Z,91.60
2018-08-07T22:36:09.124Z,91.60
2018-08-07T22:38:37.626Z,91.60
2018-08-07T22:41:06.438Z,91.60
2018-08-07T22:43:35.312Z,91.50
2018-08-07T22:46:03.833Z,91.40
2018-08-07T22:48:32.731Z,91.40
2018-08-07T22:51:01.290Z,91.40
2018-08-07T22:53:29.938Z,91.40
2018-08-07T22:55:58.602Z,91.50
2018-08-07T22:58:27.309Z,91.40
2018-08-07T23:00:55.853Z,91.60
2018-08-07T23:03:25.173Z,91.50
2018-08-07T23:05:53.760Z,91.50
2018-08-07T23:08:22.400Z,91.40
2018-08-07T23:10:50.995Z,91.60
2018-08-07T23:13:19.750Z,91.50
2018-08-07T23:15:48.526Z,91.50
2018-08-07T23:18:17.147Z,91.50
2018-08-07T23:20:45.698Z,91.50
2018-08-07T23:23:14.240Z,91.60
2018-08-07T23:25:42.838Z,91.50
2018-08-07T23:28:11.331Z,91.60
2018-08-07T23:30:39.930Z,91.70
2018-08-07T23:33:08.790Z,91.70
2018-08-07T23:35:37.392Z,92.00
2018-08-07T23:38:06.296Z,91.90
2018-08-07T23:40:34.829Z,91.80
2018-08-07T23:43:03.748Z,91.80
2018-08-07T23:45:32.518Z,91.90
2018-08-07T23:48:01.065Z,92.00
2018-08-07T23:50:29.701Z,92.10
2018-08-07T23:52:58.370Z,92.10
2018-08-07T23:55:27.002Z,92.20
2018-08-07T23:57:55.711Z,92.60
